Time;durP1;ratioP1;P1;durP2;ratioP2;P2;SDS_P1;SDS_P2;PMS_P1;PMS_P2;Temp;Humidity;BMP_temperature;BMP_pressure;BME280_temperature;BME280_humidity;BME280_pressure;Samples;Min_cycle;Max_cycle;Signal;HPM_P1;HPM_P2
2022/11/03 00:01:42;;;;;;;1999.90;999.90;;;11.10;99.90;;;;;;5080532;28;20044;-65
2022/11/03 00:04:10;;;;;;;1999.90;999.90;;;11.10;99.90;;;;;;5080405;28;20433;-65
2022/11/03 00:06:36;;;;;;;1999.90;999.90;;;11.10;99.90;;;;;;5080571;28;20429;-65
2022/11/03 00:09:05;;;;;;;1999.90;999.90;;;11.10;99.90;;;;;;5085126;28;20040;-65
2022/11/03 00:11:35;;;;;;;1999.90;999.90;;;11.10;99.90;;;;;;5080979;28;20454;-65
2022/11/03 00:14:01;;;;;;;1999.90;999.90;;;11.10;99.90;;;;;;5082966;28;20648;-65
2022/11/03 00:16:26;;;;;;;1999.90;999.90;;;11.10;99.90;;;;;;5079549;28;20036;-65
2022/11/03 00:18:53;;;;;;;1999.90;999.90;;;11.10;99.90;;;;;;5088093;28;20140;-66
2022/11/03 00:21:18;;;;;;;1999.90;999.90;;;11.00;99.90;;;;;;5091756;28;20055;-65
2022/11/03 00:23:44;;;;;;;1999.90;999.90;;;11.00;99.90;;;;;;5082991;28;20074;-65
2022/11/03 00:26:27;;;;;;;1999.90;999.90;;;11.00;99.90;;;;;;5088154;28;20380;-65
2022/11/03 00:28:54;;;;;;;1999.90;999.90;;;11.00;99.90;;;;;;5082565;28;20048;-65
2022/11/03 00:31:26;;;;;;;1999.90;999.90;;;11.00;99.90;;;;;;5088080;28;20507;-65
2022/11/03 00:33:53;;;;;;;1999.90;999.90;;;11.00;99.90;;;;;;5089585;28;20047;-65
2022/11/03 00:36:21;;;;;;;1999.90;999.90;;;11.00;99.90;;;;;;5090367;28;20040;-66
2022/11/03 00:38:46;;;;;;;1999.90;999.90;;;11.00;99.90;;;;;;5087110;28;20040;-65
2022/11/03 00:41:13;;;;;;;1999.90;999.90;;;10.90;99.90;;;;;;5072729;28;20496;-65
2022/11/03 00:43:39;;;;;;;1999.90;999.90;;;10.80;99.90;;;;;;5087818;28;20044;-65
2022/11/03 00:46:06;;;;;;;1999.90;999.90;;;10.80;99.90;;;;;;5079490;28;20056;-65
2022/11/03 00:48:33;;;;;;;1999.90;999.90;;;10.80;99.90;;;;;;5084337;28;20047;-65
2022/11/03 00:51:18;;;;;;;1999.90;999.90;;;10.80;99.90;;;;;;5086003;28;20043;-65
2022/11/03 00:53:46;;;;;;;1999.90;999.90;;;10.80;99.90;;;;;;5080677;28;20043;-65
2022/11/03 00:56:14;;;;;;;1999.90;999.90;;;10.70;99.90;;;;;;5089125;28;20384;-65
2022/11/03 00:58:41;;;;;;;1999.90;999.90;;;10.70;99.90;;;;;;5081363;28;20028;-65
2022/11/03 01:01:09;;;;;;;1999.90;999.90;;;10.70;99.90;;;;;;5085185;28;20056;-65
2022/11/03 01:03:36;;;;;;;1999.90;999.90;;;10.70;99.90;;;;;;5086534;28;20463;-65
2022/11/03 01:08:50;;;;;;;1999.90;999.90;;;10.70;99.90;;;;;;5090472;28;20380;-65
2022/11/03 01:14:04;;;;;;;1999.90;999.90;;;10.60;99.90;;;;;;5080262;28;21157;-65
2022/11/03 01:16:30;;;;;;;1999.90;999.90;;;10.70;99.90;;;;;;5089785;28;20042;-65
2022/11/03 01:18:56;;;;;;;1999.90;999.90;;;10.60;99.90;;;;;;5083841;28;20040;-65
2022/11/03 01:21:21;;;;;;;1999.90;999.90;;;10.60;99.90;;;;;;5086647;28;20043;-65
2022/11/03 01:23:47;;;;;;;1999.90;999.90;;;10.60;99.90;;;;;;5086989;28;20070;-65
2022/11/03 01:26:13;;;;;;;1999.90;999.90;;;10.60;99.90;;;;;;5086099;28;20125;-65
2022/11/03 01:28:41;;;;;;;1999.90;999.90;;;10.70;99.90;;;;;;5084812;28;20079;-65
2022/11/03 01:31:10;;;;;;;1999.90;999.90;;;10.70;99.90;;;;;;5084273;28;20048;-65
2022/11/03 01:33:37;;;;;;;1999.90;999.90;;;10.60;99.90;;;;;;5086544;28;20093;-65
2022/11/03 01:36:03;;;;;;;1999.90;999.90;;;10.60;99.90;;;;;;5075303;28;20407;-65
2022/11/03 01:38:33;;;;;;;1999.90;999.90;;;10.60;99.90;;;;;;5080277;28;20040;-65
2022/11/03 01:41:00;;;;;;;1999.90;999.90;;;10.60;99.90;;;;;;5082437;28;20080;-65
2022/11/03 01:43:30;;;;;;;1999.90;999.90;;;10.60;99.90;;;;;;5076334;28;20358;-65
2022/11/03 01:46:23;;;;;;;1999.90;999.90;;;10.50;99.90;;;;;;5083073;28;20419;-65
2022/11/03 01:49:20;;;;;;;1999.90;999.90;;;10.50;99.90;;;;;;5078979;28;20036;-65
2022/11/03 01:51:53;;;;;;;1999.90;999.90;;;10.50;99.90;;;;;;5045810;28;20056;-65
2022/11/03 01:54:22;;;;;;;1999.90;999.90;;;10.40;99.90;;;;;;5077508;28;20400;-65
2022/11/03 01:56:50;;;;;;;1999.90;999.90;;;10.40;99.90;;;;;;5086841;28;20036;-65
2022/11/03 01:59:18;;;;;;;1999.90;999.90;;;10.30;99.90;;;;;;5085216;28;20108;-65
2022/11/03 02:01:44;;;;;;;1999.90;999.90;;;10.30;99.90;;;;;;5085800;28;20407;-65
2022/11/03 02:04:17;;;;;;;1999.90;999.90;;;10.30;99.90;;;;;;5085707;28;20048;-65
2022/11/03 02:06:43;;;;;;;1999.90;999.90;;;10.30;99.90;;;;;;5084050;28;20094;-65
2022/11/03 02:09:09;;;;;;;1999.90;999.90;;;10.30;99.90;;;;;;5078701;28;20040;-65
2022/11/03 02:14:20;;;;;;;1999.90;999.90;;;10.40;99.90;;;;;;5069162;28;20405;-65
2022/11/03 02:16:52;;;;;;;1999.90;999.90;;;10.30;99.90;;;;;;5085220;28;20086;-66
2022/11/03 02:19:45;;;;;;;1999.90;999.90;;;10.30;99.90;;;;;;5083882;28;20036;-65
2022/11/03 02:22:20;;;;;;;1999.90;999.90;;;10.30;99.90;;;;;;5087983;28;20130;-65
2022/11/03 02:24:51;;;;;;;1999.90;999.90;;;10.30;99.90;;;;;;5087240;28;20408;-65
2022/11/03 02:27:18;;;;;;;1999.90;999.90;;;10.30;99.90;;;;;;5086914;28;20148;-65
2022/11/03 02:29:44;;;;;;;1999.90;999.90;;;10.40;99.90;;;;;;5085566;28;20435;-65
2022/11/03 02:32:14;;;;;;;1999.90;999.90;;;10.30;99.90;;;;;;5075545;28;20047;-65
2022/11/03 02:35:05;;;;;;;1999.90;999.90;;;10.30;99.90;;;;;;5076278;28;20122;-65
2022/11/03 02:37:35;;;;;;;1999.90;999.90;;;10.30;99.90;;;;;;5081642;28;20040;-65
2022/11/03 02:40:06;;;;;;;1999.90;999.90;;;10.40;99.90;;;;;;5079265;28;20428;-65
2022/11/03 02:42:34;;;;;;;1999.90;999.90;;;10.50;99.90;;;;;;5082441;28;20044;-65
2022/11/03 02:45:03;;;;;;;1999.90;999.90;;;10.50;99.90;;;;;;5098628;28;20040;-65
2022/11/03 02:47:30;;;;;;;1999.90;999.90;;;10.40;99.90;;;;;;5078368;28;20398;-65
2022/11/03 02:49:55;;;;;;;1999.90;999.90;;;10.50;99.90;;;;;;5075842;28;20510;-65
2022/11/03 02:52:41;;;;;;;1999.90;999.90;;;10.50;99.90;;;;;;5070701;28;20048;-66
2022/11/03 02:55:16;;;;;;;1999.90;999.90;;;10.50;99.90;;;;;;5087855;28;20044;-65
2022/11/03 02:58:08;;;;;;;1999.90;999.90;;;10.50;99.90;;;;;;5084826;28;20059;-65
2022/11/03 03:00:44;;;;;;;1999.90;999.90;;;10.50;99.90;;;;;;5085117;28;20373;-65
2022/11/03 03:03:31;;;;;;;1999.90;999.90;;;10.50;99.90;;;;;;5072286;28;20044;-65
2022/11/03 03:06:07;;;;;;;1999.90;999.90;;;10.50;99.90;;;;;;5069217;28;20044;-65
2022/11/03 03:08:34;;;;;;;1999.90;999.90;;;10.50;99.90;;;;;;5084025;28;20064;-65
2022/11/03 03:11:03;;;;;;;1999.90;999.90;;;10.50;99.90;;;;;;5067832;28;20043;-65
2022/11/03 03:13:29;;;;;;;1999.90;999.90;;;10.60;99.90;;;;;;5083801;28;20035;-65
2022/11/03 03:16:21;;;;;;;1999.90;999.90;;;10.60;99.90;;;;;;5072192;28;20472;-65
2022/11/03 03:19:02;;;;;;;1999.90;999.90;;;10.70;99.90;;;;;;5067645;28;20047;-65
2022/11/03 03:21:34;;;;;;;1999.90;999.90;;;10.70;99.90;;;;;;5074589;28;20522;-65
2022/11/03 03:24:07;;;;;;;1999.90;999.90;;;10.70;99.90;;;;;;5077544;28;20051;-65
2022/11/03 03:26:39;;;;;;;1999.90;999.90;;;10.70;99.90;;;;;;5076180;28;20059;-65
2022/11/03 03:29:08;;;;;;;1999.90;999.90;;;10.70;99.90;;;;;;5079337;28;20044;-65
2022/11/03 03:31:37;;;;;;;1999.90;999.90;;;10.70;99.90;;;;;;5079067;28;20389;-65
2022/11/03 03:34:04;;;;;;;1999.90;999.90;;;10.70;99.90;;;;;;5079457;28;20031;-65
2022/11/03 03:36:32;;;;;;;1999.90;999.90;;;10.70;99.90;;;;;;5073773;28;20040;-65
2022/11/03 03:39:02;;;;;;;1999.90;999.90;;;10.80;99.90;;;;;;5084047;28;20422;-66
2022/11/03 03:41:31;;;;;;;1999.90;999.90;;;10.80;99.90;;;;;;5070249;28;20043;-65
2022/11/03 03:44:01;;;;;;;1999.90;999.90;;;10.70;99.90;;;;;;5084118;28;20055;-65
2022/11/03 03:46:33;;;;;;;1999.90;999.90;;;10.70;99.90;;;;;;5080166;28;20052;-65
2022/11/03 03:48:59;;;;;;;1999.90;999.90;;;10.70;99.90;;;;;;5081532;28;20510;-65
2022/11/03 03:51:27;;;;;;;1999.90;999.90;;;10.60;99.90;;;;;;5066992;28;20116;-65
2022/11/03 03:53:53;;;;;;;1999.90;999.90;;;10.60;99.90;;;;;;5067689;28;20151;-65
2022/11/03 03:56:42;;;;;;;1999.90;999.90;;;10.60;99.90;;;;;;5082592;28;20044;-65
2022/11/03 03:59:08;;;;;;;1999.90;999.90;;;10.60;99.90;;;;;;5072668;28;20135;-65
2022/11/03 04:01:33;;;;;;;1999.90;999.90;;;10.60;99.90;;;;;;5071047;28;20458;-65
2022/11/03 04:03:59;;;;;;;1999.90;999.90;;;10.60;99.90;;;;;;5069094;28;20167;-65
2022/11/03 04:06:25;;;;;;;1999.90;999.90;;;10.60;99.90;;;;;;5080397;28;20042;-65
2022/11/03 04:08:50;;;;;;;1999.90;999.90;;;10.60;99.90;;;;;;5066131;28;20519;-65
2022/11/03 04:22:15;;;;;;;1999.90;999.90;;;10.60;99.90;;;;;;5068259;28;20044;-65
2022/11/03 04:24:41;;;;;;;1999.90;999.90;;;10.60;99.90;;;;;;5085526;28;20119;-65
2022/11/03 04:27:32;;;;;;;1999.90;999.90;;;10.70;99.90;;;;;;5071569;28;20547;-65
2022/11/03 04:30:15;;;;;;;1999.90;999.90;;;10.70;99.90;;;;;;5078785;28;20448;-65
2022/11/03 04:32:45;;;;;;;1999.90;999.90;;;10.70;99.90;;;;;;5065205;28;20044;-65
2022/11/03 04:35:18;;;;;;;1999.90;999.90;;;10.70;99.90;;;;;;5079930;28;20032;-65
2022/11/03 04:37:52;;;;;;;1999.90;999.90;;;10.70;99.90;;;;;;5075152;28;20123;-65
2022/11/03 04:40:18;;;;;;;1999.90;999.90;;;10.80;99.90;;;;;;5074448;28;20044;-65
2022/11/03 04:42:44;;;;;;;1999.90;999.90;;;10.80;99.90;;;;;;5080424;28;20047;-66
2022/11/03 04:45:30;;;;;;;1999.90;999.90;;;10.80;99.90;;;;;;5066559;28;20395;-65
2022/11/03 04:47:59;;;;;;;1999.90;999.90;;;10.80;99.90;;;;;;5082083;28;20061;-65
2022/11/03 04:50:24;;;;;;;1999.90;999.90;;;10.90;99.90;;;;;;5067464;28;20056;-66
2022/11/03 04:52:54;;;;;;;1999.90;999.90;;;10.90;99.90;;;;;;5082849;28;20040;-65
2022/11/03 04:55:20;;;;;;;1999.90;999.90;;;10.90;99.90;;;;;;5083091;28;20135;-65
2022/11/03 04:57:47;;;;;;;1999.90;999.90;;;10.90;99.90;;;;;;5088346;28;20056;-65
2022/11/03 05:00:18;;;;;;;1999.90;999.90;;;10.90;99.90;;;;;;5092866;28;20052;-65
2022/11/03 05:02:45;;;;;;;1999.90;999.90;;;10.90;99.90;;;;;;5089080;28;20177;-65
2022/11/03 05:05:20;;;;;;;1999.90;999.90;;;10.90;99.90;;;;;;5069206;28;20044;-65
2022/11/03 05:07:52;;;;;;;1999.90;999.90;;;10.80;99.90;;;;;;5083893;28;20485;-65
2022/11/03 05:10:22;;;;;;;1999.90;999.90;;;10.80;99.90;;;;;;5090991;28;20039;-65
2022/11/03 05:12:49;;;;;;;1999.90;999.90;;;10.80;99.90;;;;;;5083386;28;20044;-65
2022/11/03 05:15:42;;;;;;;1999.90;999.90;;;10.80;99.90;;;;;;5083840;28;20043;-65
2022/11/03 05:18:18;;;;;;;1999.90;999.90;;;10.70;99.90;;;;;;5081631;28;20044;-66
2022/11/03 05:20:49;;;;;;;1999.90;999.90;;;10.70;99.90;;;;;;5082675;28;20036;-65
2022/11/03 05:23:15;;;;;;;1999.90;999.90;;;10.70;99.90;;;;;;5089024;28;20044;-65
2022/11/03 05:25:55;;;;;;;1999.90;999.90;;;10.70;99.90;;;;;;5078831;28;20093;-65
2022/11/03 05:28:32;;;;;;;1999.90;999.90;;;10.70;99.90;;;;;;5089399;28;20449;-65
2022/11/03 05:30:58;;;;;;;1999.90;999.90;;;10.70;99.90;;;;;;5079337;28;20044;-66
2022/11/03 05:33:34;;;;;;;1999.90;999.90;;;10.80;99.90;;;;;;5075848;28;20048;-65
2022/11/03 05:36:06;;;;;;;1999.90;999.90;;;10.80;99.90;;;;;;5074757;28;20119;-66
2022/11/03 05:38:33;;;;;;;1999.90;999.90;;;10.80;99.90;;;;;;5079709;28;20040;-65
2022/11/03 05:41:00;;;;;;;1999.90;999.90;;;10.70;99.90;;;;;;5089692;28;20514;-66
2022/11/03 05:43:26;;;;;;;1999.90;999.90;;;10.70;99.90;;;;;;5087971;28;20048;-65
2022/11/03 05:45:56;;;;;;;1999.90;999.90;;;10.70;99.90;;;;;;5069706;28;20043;-66
2022/11/03 05:48:36;;;;;;;1999.90;999.90;;;10.70;99.90;;;;;;5076537;28;20051;-66
2022/11/03 05:51:16;;;;;;;1999.90;999.90;;;10.70;99.90;;;;;;5081957;28;20047;-65
2022/11/03 05:53:42;;;;;;;1999.90;999.90;;;10.70;99.90;;;;;;5077527;28;20052;-65
2022/11/03 05:56:14;;;;;;;1999.90;999.90;;;10.70;99.90;;;;;;5089107;28;20047;-65
2022/11/03 05:58:41;;;;;;;1999.90;999.90;;;10.60;99.90;;;;;;5079162;28;20047;-65
2022/11/03 06:01:17;;;;;;;1999.90;999.90;;;10.60;99.90;;;;;;5073179;28;20040;-65
2022/11/03 06:03:43;;;;;;;1999.90;999.90;;;10.70;99.90;;;;;;5079314;28;20044;-66
2022/11/03 06:06:23;;;;;;;1999.90;999.90;;;10.70;99.90;;;;;;5087069;28;20044;-66
2022/11/03 06:08:50;;;;;;;1999.90;999.90;;;10.70;99.90;;;;;;5077522;28;20049;-66
2022/11/03 06:11:26;;;;;;;1999.90;999.90;;;10.70;99.90;;;;;;5067972;28;20755;-65
2022/11/03 06:13:51;;;;;;;1999.90;999.90;;;10.70;99.90;;;;;;5071863;28;20511;-65
2022/11/03 06:16:26;;;;;;;1999.90;999.90;;;10.70;99.90;;;;;;5091709;28;20036;-65
2022/11/03 06:18:51;;;;;;;1999.90;999.90;;;10.70;99.90;;;;;;5089301;28;20444;-65
2022/11/03 06:21:23;;;;;;;1999.90;999.90;;;10.70;99.90;;;;;;5090096;28;20044;-65
2022/11/03 06:23:49;;;;;;;1999.90;999.90;;;10.70;99.90;;;;;;5073847;28;20089;-65
2022/11/03 06:26:21;;;;;;;1999.90;999.90;;;10.70;99.90;;;;;;5087194;28;20052;-66
2022/11/03 06:28:47;;;;;;;1999.90;999.90;;;10.70;99.90;;;;;;5082640;28;20076;-65
2022/11/03 06:31:19;;;;;;;1999.90;999.90;;;10.70;99.90;;;;;;5067729;28;20067;-65
2022/11/03 06:33:45;;;;;;;1999.90;999.90;;;10.70;99.90;;;;;;5068988;28;20036;-65
2022/11/03 06:36:19;;;;;;;1999.90;999.90;;;10.70;99.90;;;;;;5078962;28;20036;-65
2022/11/03 06:38:59;;;;;;;1999.90;999.90;;;10.70;99.90;;;;;;5051229;28;20055;-65
2022/11/03 06:41:27;;;;;;;1999.90;999.90;;;10.60;99.90;;;;;;5071029;28;20079;-65
2022/11/03 06:43:53;;;;;;;1999.90;999.90;;;10.60;99.90;;;;;;5067114;28;20097;-65
2022/11/03 06:46:25;;;;;;;1999.90;999.90;;;10.60;99.90;;;;;;5066976;28;20493;-65
2022/11/03 06:48:57;;;;;;;1999.90;999.90;;;10.60;99.90;;;;;;5084317;28;20048;-65
2022/11/03 06:51:26;;;;;;;1999.90;999.90;;;10.60;99.90;;;;;;5083664;28;20305;-65
2022/11/03 06:53:54;;;;;;;1999.90;999.90;;;10.60;99.90;;;;;;5077021;28;20109;-66
2022/11/03 06:56:22;;;;;;;1999.90;999.90;;;10.60;99.90;;;;;;5078885;28;20041;-65
2022/11/03 06:58:51;;;;;;;1999.90;999.90;;;10.60;99.90;;;;;;5091213;28;20090;-65
2022/11/03 07:01:28;;;;;;;1999.90;999.90;;;10.60;99.90;;;;;;5085309;28;20088;-65
2022/11/03 07:04:00;;;;;;;1999.90;999.90;;;10.60;99.90;;;;;;5078646;28;20094;-65
2022/11/03 07:06:30;;;;;;;1999.90;999.90;;;10.60;99.90;;;;;;5083366;28;20111;-65
2022/11/03 07:09:00;;;;;;;1999.90;999.90;;;10.60;99.90;;;;;;5089139;28;20404;-65
2022/11/03 07:11:28;;;;;;;1999.90;999.90;;;10.60;99.90;;;;;;5084532;28;20056;-65
2022/11/03 07:14:03;;;;;;;1999.90;999.90;;;10.60;99.90;;;;;;5083926;28;20487;-65
2022/11/03 07:16:36;;;;;;;1999.90;999.90;;;10.70;99.90;;;;;;5086845;28;20502;-65
2022/11/03 07:19:20;;;;;;;1999.90;999.90;;;10.70;99.90;;;;;;5079136;28;20036;-65
2022/11/03 07:21:53;;;;;;;1999.90;999.90;;;10.70;99.90;;;;;;5067668;28;20043;-65
2022/11/03 07:24:28;;;;;;;1999.90;999.90;;;10.80;99.90;;;;;;5082700;28;20040;-65
2022/11/03 07:27:20;;;;;;;1999.90;999.90;;;10.80;99.90;;;;;;5084161;28;20062;-66
2022/11/03 07:29:48;;;;;;;1999.90;999.90;;;10.90;99.90;;;;;;5087756;28;20042;-65
2022/11/03 07:32:24;;;;;;;1999.90;999.90;;;10.90;99.90;;;;;;5073924;28;20044;-65
2022/11/03 07:34:52;;;;;;;1999.90;999.90;;;10.90;99.90;;;;;;5070260;28;20040;-65
2022/11/03 07:37:22;;;;;;;1999.90;999.90;;;10.90;99.90;;;;;;5080401;28;20036;-65
2022/11/03 07:39:49;;;;;;;1999.90;999.90;;;11.00;99.90;;;;;;5071942;28;20040;-65
2022/11/03 07:42:20;;;;;;;1999.90;999.90;;;11.00;99.90;;;;;;5070712;28;20140;-66
2022/11/03 07:44:47;;;;;;;1999.90;999.90;;;11.00;99.90;;;;;;5068070;28;20048;-65
2022/11/03 07:47:17;;;;;;;1999.90;999.90;;;11.10;99.90;;;;;;5067916;28;20390;-65
2022/11/03 07:49:44;;;;;;;1999.90;999.90;;;11.10;99.90;;;;;;5087722;28;20062;-65
2022/11/03 07:52:13;;;;;;;1999.90;999.90;;;11.20;99.90;;;;;;5081701;28;20391;-65
2022/11/03 07:54:39;;;;;;;1999.90;999.90;;;11.20;99.90;;;;;;5073015;28;20509;-66
2022/11/03 07:57:18;;;;;;;1999.90;999.90;;;11.30;99.90;;;;;;5092069;28;20040;-65
2022/11/03 07:59:46;;;;;;;1999.90;999.90;;;11.30;99.90;;;;;;5052653;28;20071;-65
2022/11/03 08:02:31;;;;;;;1999.90;999.90;;;11.30;99.90;;;;;;5077123;28;20125;-65
2022/11/03 08:04:57;;;;;;;1999.90;999.90;;;11.40;99.90;;;;;;5086272;28;20048;-66
2022/11/03 08:07:23;;;;;;;1999.90;999.90;;;11.40;99.90;;;;;;5064045;28;20048;-65
2022/11/03 08:09:49;;;;;;;1999.90;999.90;;;11.50;99.90;;;;;;5087035;28;20399;-65
2022/11/03 08:12:15;;;;;;;1999.90;999.90;;;11.50;99.90;;;;;;5053326;28;20040;-66
2022/11/03 08:14:41;;;;;;;1999.90;999.90;;;11.60;99.90;;;;;;5095881;28;20047;-65
2022/11/03 08:17:06;;;;;;;1999.90;999.90;;;11.70;99.90;;;;;;5087172;28;20032;-65
2022/11/03 08:19:32;;;;;;;1999.90;999.90;;;11.70;99.90;;;;;;5086853;28;20396;-65
2022/11/03 08:21:57;;;;;;;1999.90;999.90;;;11.90;99.90;;;;;;5082111;28;20085;-66
2022/11/03 08:24:23;;;;;;;1999.90;999.90;;;11.90;99.90;;;;;;5075072;28;20040;-66
2022/11/03 08:26:48;;;;;;;1999.90;999.90;;;12.00;99.90;;;;;;5086360;28;20056;-65
2022/11/03 08:29:16;;;;;;;1999.90;999.90;;;12.20;99.90;;;;;;5067816;28;20119;-65
2022/11/03 08:31:42;;;;;;;1999.90;999.90;;;12.40;99.90;;;;;;5067332;28;20055;-66
2022/11/03 08:34:07;;;;;;;1999.90;999.90;;;12.60;99.90;;;;;;5070863;28;20044;-65
2022/11/03 08:36:34;;;;;;;1999.90;999.90;;;12.70;99.90;;;;;;5073027;28;20037;-65
2022/11/03 08:38:59;;;;;;;1999.90;999.90;;;12.80;99.90;;;;;;5076555;28;20498;-66
2022/11/03 08:41:25;;;;;;;1999.90;999.90;;;12.90;99.90;;;;;;5099087;28;20051;-65
2022/11/03 08:43:50;;;;;;;1999.90;999.90;;;13.00;99.90;;;;;;5069433;28;20477;-65
2022/11/03 08:46:16;;;;;;;1999.90;999.90;;;13.00;99.90;;;;;;5069075;28;20095;-66
2022/11/03 08:48:41;;;;;;;1999.90;999.90;;;13.00;99.90;;;;;;5082291;28;20055;-66
2022/11/03 08:51:09;;;;;;;1999.90;999.90;;;13.00;99.90;;;;;;5081307;28;20424;-66
2022/11/03 08:53:34;;;;;;;1999.90;999.90;;;13.00;99.90;;;;;;5079555;28;20040;-66
2022/11/03 08:56:00;;;;;;;1999.90;999.90;;;13.00;99.90;;;;;;5104516;28;20537;-66
2022/11/03 08:58:26;;;;;;;1999.90;999.90;;;13.00;99.90;;;;;;5081864;28;20504;-65
2022/11/03 09:00:51;;;;;;;1999.90;999.90;;;13.00;99.90;;;;;;5099898;28;20091;-66
2022/11/03 09:03:17;;;;;;;1999.90;999.90;;;13.10;99.90;;;;;;5068609;28;20055;-66
2022/11/03 09:05:43;;;;;;;1999.90;999.90;;;13.00;99.90;;;;;;5074679;28;20117;-65
2022/11/03 09:08:08;;;;;;;1999.90;999.90;;;13.00;99.90;;;;;;5072925;28;20051;-65
2022/11/03 09:10:34;;;;;;;1999.90;999.90;;;13.00;99.90;;;;;;5106718;28;20064;-66
2022/11/03 09:12:59;;;;;;;1999.90;999.90;;;13.10;99.90;;;;;;5088767;28;20081;-65
2022/11/03 09:15:25;;;;;;;1999.90;999.90;;;13.00;99.90;;;;;;5086987;28;20036;-66
2022/11/03 09:17:50;;;;;;;1999.90;999.90;;;13.00;99.90;;;;;;5081504;28;20104;-65
2022/11/03 09:20:16;;;;;;;1999.90;999.90;;;13.10;99.90;;;;;;5088926;28;20040;-66
2022/11/03 09:22:42;;;;;;;1999.90;999.90;;;13.10;99.90;;;;;;5079231;28;20040;-65
2022/11/03 09:25:08;;;;;;;1999.90;999.90;;;13.20;99.90;;;;;;5068500;28;20056;-65
2022/11/03 09:27:33;;;;;;;1999.90;999.90;;;13.20;99.90;;;;;;5076536;28;20047;-65
2022/11/03 09:29:59;;;;;;;1999.90;999.90;;;13.30;99.90;;;;;;5082144;28;20476;-65
2022/11/03 09:32:25;;;;;;;1999.90;999.90;;;13.30;99.90;;;;;;5069564;28;20676;-66
2022/11/03 09:34:50;;;;;;;1999.90;999.90;;;13.40;99.90;;;;;;5085341;28;20086;-65
2022/11/03 09:37:16;;;;;;;1999.90;999.90;;;13.40;99.90;;;;;;5066835;28;20048;-65
2022/11/03 09:39:42;;;;;;;1999.90;999.90;;;13.40;99.90;;;;;;5071830;28;20086;-65
2022/11/03 09:42:11;;;;;;;1999.90;999.90;;;13.50;99.90;;;;;;5093521;28;20041;-65
2022/11/03 09:44:37;;;;;;;1999.90;999.90;;;13.50;99.90;;;;;;5086739;28;20093;-65
2022/11/03 09:47:04;;;;;;;1999.90;999.90;;;13.60;99.90;;;;;;5094648;28;20056;-66
2022/11/03 09:49:31;;;;;;;1999.90;999.90;;;13.60;99.90;;;;;;5084126;28;20448;-65
2022/11/03 09:51:58;;;;;;;1999.90;999.90;;;13.70;99.90;;;;;;5085990;28;20085;-66
2022/11/03 09:54:25;;;;;;;1999.90;999.90;;;13.80;99.90;;;;;;5083772;28;20055;-65
2022/11/03 09:56:51;;;;;;;1999.90;999.90;;;13.90;99.90;;;;;;5078558;28;20040;-65
2022/11/03 09:59:19;;;;;;;1999.90;999.90;;;13.90;99.90;;;;;;5104778;28;20040;-65
2022/11/03 10:01:48;;;;;;;1999.90;999.90;;;14.10;99.90;;;;;;5077195;28;20055;-65
2022/11/03 10:04:16;;;;;;;1999.90;999.90;;;14.10;99.90;;;;;;5081194;28;20523;-66
2022/11/03 10:06:42;;;;;;;1999.90;999.90;;;14.20;99.90;;;;;;5078821;28;20505;-65
2022/11/03 10:09:19;;;;;;;1999.90;999.90;;;14.20;99.90;;;;;;5080618;28;20035;-66
2022/11/03 10:11:45;;;;;;;1999.90;999.90;;;14.30;99.90;;;;;;5069659;28;20412;-66
2022/11/03 10:14:15;;;;;;;1999.90;999.90;;;14.30;99.90;;;;;;5088914;28;20097;-65
2022/11/03 10:16:41;;;;;;;1999.90;999.90;;;14.30;99.90;;;;;;5076231;28;20076;-65
2022/11/03 10:19:13;;;;;;;1999.90;999.90;;;14.40;99.90;;;;;;5074459;28;20576;-66
2022/11/03 10:21:41;;;;;;;1999.90;999.90;;;14.40;99.90;;;;;;5080789;28;20051;-66
2022/11/03 10:24:11;;;;;;;1999.90;999.90;;;14.40;99.90;;;;;;5079406;28;20044;-67
2022/11/03 10:26:47;;;;;;;1999.90;999.90;;;14.30;99.90;;;;;;5075598;28;20046;-66
2022/11/03 10:29:22;;;;;;;1999.90;999.90;;;14.30;99.90;;;;;;5068545;28;20492;-66
2022/11/03 10:31:50;;;;;;;1999.90;999.90;;;14.40;99.90;;;;;;5072288;28;20051;-66
2022/11/03 10:34:38;;;;;;;1999.90;999.90;;;14.40;99.90;;;;;;5068933;28;20044;-65
2022/11/03 10:37:19;;;;;;;1999.90;999.90;;;14.40;99.90;;;;;;5085458;28;20036;-66
2022/11/03 10:39:46;;;;;;;1999.90;999.90;;;14.50;99.90;;;;;;5080859;28;20484;-66
2022/11/03 10:42:19;;;;;;;1999.90;999.90;;;14.50;99.90;;;;;;5071783;28;20048;-66
2022/11/03 10:44:45;;;;;;;;;;;14.60;99.90;;;;;;5088440;28;20036;-66
2022/11/03 10:47:25;;;;;;;1999.90;999.90;;;14.60;99.90;;;;;;5072681;28;19924;-66
2022/11/03 10:49:53;;;;;;;1999.90;999.90;;;14.70;99.90;;;;;;5075986;28;20504;-65
2022/11/03 10:52:28;;;;;;;1999.90;999.90;;;14.80;99.90;;;;;;5070175;28;20492;-66
2022/11/03 10:54:56;;;;;;;1999.90;999.90;;;14.90;99.90;;;;;;5079444;28;20046;-66
2022/11/03 10:57:24;;;;;;;1999.90;999.90;;;15.00;99.90;;;;;;5072481;28;20420;-66
2022/11/03 10:59:52;;;;;;;1999.90;999.90;;;15.00;99.90;;;;;;5069941;28;20048;-66
2022/11/03 11:02:19;;;;;;;1999.90;999.90;;;15.10;99.90;;;;;;5077743;28;20527;-66
2022/11/03 11:04:46;;;;;;;1999.90;999.90;;;15.10;99.90;;;;;;5076334;28;20408;-66
2022/11/03 11:07:24;;;;;;;1999.90;999.90;;;15.10;99.90;;;;;;5081947;28;20039;-66
2022/11/03 11:09:50;;;;;;;1999.90;999.90;;;15.20;99.90;;;;;;5075859;28;20036;-66
2022/11/03 11:12:23;;;;;;;1999.90;999.90;;;15.30;99.90;;;;;;5077209;28;20397;-66
2022/11/03 11:15:00;;;;;;;1999.90;999.90;;;15.50;99.90;;;;;;5079313;28;20036;-66
2022/11/03 11:17:45;;;;;;;1999.90;999.90;;;15.70;99.90;;;;;;5073157;28;20440;-67
2022/11/03 11:20:23;;;;;;;1999.90;999.90;;;15.80;99.90;;;;;;5074339;28;20507;-66
2022/11/03 11:22:50;;;;;;;1999.90;999.90;;;15.90;99.90;;;;;;5077344;28;20072;-66
2022/11/03 11:25:18;;;;;;;1999.90;999.90;;;15.90;99.90;;;;;;5069627;28;20048;-66
2022/11/03 11:27:44;;;;;;;1999.90;999.90;;;15.90;99.90;;;;;;5079633;28;20052;-66
2022/11/03 11:30:19;;;;;;;1999.90;999.90;;;15.90;99.90;;;;;;5104348;28;20075;-65
2022/11/03 11:32:44;;;;;;;1999.90;999.90;;;15.90;99.90;;;;;;5068014;28;20040;-66
2022/11/03 11:35:15;;;;;;;1999.90;999.90;;;15.80;99.90;;;;;;5075052;28;20488;-66
2022/11/03 11:37:41;;;;;;;1999.90;999.90;;;15.80;99.90;;;;;;5075679;28;20452;-66
2022/11/03 11:40:25;;;;;;;1999.90;999.90;;;15.80;99.90;;;;;;5077059;28;20040;-66
2022/11/03 11:43:05;;;;;;;1999.90;999.90;;;15.80;99.90;;;;;;5081778;28;20043;-66
2022/11/03 11:46:08;;;;;;;1999.90;999.90;;;15.80;99.90;;;;;;5076724;28;20040;-66
2022/11/03 11:48:35;;;;;;;1999.90;999.90;;;15.80;99.90;;;;;;5076478;28;20084;-67
2022/11/03 11:51:02;;;;;;;1999.90;999.90;;;15.80;99.90;;;;;;5085889;28;20051;-67
2022/11/03 11:53:33;;;;;;;1999.90;999.90;;;15.70;99.90;;;;;;5073531;28;20032;-67
2022/11/03 11:56:01;;;;;;;1999.90;999.90;;;15.70;99.90;;;;;;5074053;28;20052;-67
2022/11/03 11:58:34;;;;;;;1999.90;999.90;;;15.70;99.90;;;;;;5077392;28;20048;-66
2022/11/03 12:01:03;;;;;;;1999.90;999.90;;;15.70;99.90;;;;;;5073896;28;20123;-66
2022/11/03 12:03:38;;;;;;;1999.90;999.90;;;15.70;99.90;;;;;;5077239;28;20085;-66
2022/11/03 12:06:04;;;;;;;1999.90;999.90;;;15.60;99.90;;;;;;5067168;28;20055;-67
2022/11/03 12:08:31;;;;;;;1999.90;999.90;;;15.60;99.90;;;;;;5071500;28;20457;-66
2022/11/03 12:11:04;;;;;;;1999.90;999.90;;;15.60;99.90;;;;;;5069411;28;20123;-67
2022/11/03 12:13:50;;;;;;;1999.90;999.90;;;15.60;99.90;;;;;;5074298;28;20625;-67
2022/11/03 12:16:35;;;;;;;1999.90;999.90;;;15.60;99.90;;;;;;5081854;28;20190;-67
2022/11/03 12:19:32;;;;;;;1999.90;999.90;;;15.60;99.90;;;;;;5075735;28;20033;-67
2022/11/03 12:21:57;;;;;;;1999.90;999.90;;;15.60;99.90;;;;;;5066593;28;20048;-67
2022/11/03 12:24:35;;;;;;;1999.90;999.90;;;15.60;99.90;;;;;;5074895;28;20050;-67
2022/11/03 12:27:15;;;;;;;1999.90;999.90;;;15.50;99.90;;;;;;5075547;28;20040;-67
2022/11/03 12:29:40;;;;;;;1999.90;999.90;;;15.50;99.90;;;;;;5079130;28;20085;-66
2022/11/03 12:32:06;;;;;;;1999.90;999.90;;;15.50;99.90;;;;;;5080016;28;20454;-64
2022/11/03 12:34:31;;;;;;;1999.90;999.90;;;15.50;99.90;;;;;;5077074;28;20399;-64